createdAt,value
2019-02-16T20:51:51.121Z,62.45
2019-02-16T20:54:21.364Z,63.02
2019-02-16T20:56:51.377Z,63.07
2019-02-16T20:59:27.358Z,63.02
2019-02-16T21:01:57.323Z,63.11
2019-02-16T21:04:39.387Z,63.14
2019-02-16T21:07:15.195Z,62.91
2019-02-16T21:09:45.214Z,62.83
2019-02-16T21:12:21.390Z,62.97
2019-02-16T21:14:51.471Z,63.94
2019-02-16T21:17:21.912Z,65.04
2019-02-16T21:20:04.220Z,65.27
2019-02-16T21:22:37.110Z,65.53
2019-02-16T21:25:10.887Z,66.78
2019-02-16T21:27:57.729Z,66.56
2019-02-16T21:30:24.370Z,66.26
2019-02-16T21:33:00.318Z,66.15
2019-02-16T21:35:42.154Z,66.13
2019-02-16T21:38:14.987Z,65.91
2019-02-16T21:40:45.217Z,65.74
2019-02-16T21:43:21.206Z,66.11
2019-02-16T21:46:20.987Z,66.62
2019-02-16T21:48:52.168Z,67.27
2019-02-16T21:51:23.240Z,67.05
2019-02-16T21:54:10.434Z,67.44
2019-02-16T21:56:53.849Z,67.59
2019-02-16T21:59:33.943Z,67.80
2019-02-16T22:02:16.905Z,68.25
2019-02-16T22:04:48.024Z,67.68
2019-02-16T22:07:19.231Z,67.52
2019-02-16T22:09:56.269Z,67.51
2019-02-16T22:12:30.605Z,68.13
2019-02-16T22:15:02.333Z,67.97
2019-02-16T22:17:31.604Z,67.70
2019-02-16T22:20:01.097Z,67.67
2019-02-16T22:22:30.599Z,67.43
2019-02-16T22:25:00.183Z,67.95
2019-02-16T22:27:29.806Z,68.22
2019-02-16T22:29:59.367Z,67.98
2019-02-16T22:32:28.999Z,68.36
2019-02-16T22:34:58.667Z,68.47
2019-02-16T22:37:28.255Z,68.84
2019-02-16T22:39:57.757Z,69.81
2019-02-16T22:42:27.358Z,69.60
2019-02-16T22:44:57.120Z,69.86
2019-02-16T22:47:26.822Z,69.59
2019-02-16T22:49:56.419Z,70.22
2019-02-16T22:52:25.858Z,70.72
2019-02-16T22:54:55.568Z,70.61
2019-02-16T22:57:25.138Z,71.15
2019-02-16T22:59:54.889Z,71.12
2019-02-16T23:02:24.391Z,71.41
2019-02-16T23:04:53.904Z,71.26
2019-02-16T23:07:23.497Z,71.29
2019-02-16T23:09:53.204Z,71.29
2019-02-16T23:12:22.624Z,71.37
2019-02-16T23:14:52.285Z,71.24
2019-02-16T23:17:21.940Z,70.77
2019-02-16T23:19:51.652Z,70.71
2019-02-16T23:22:21.165Z,70.82
2019-02-16T23:24:50.764Z,70.52
2019-02-16T23:27:20.361Z,69.91
2019-02-16T23:29:49.842Z,69.87
2019-02-16T23:32:19.259Z,69.54
2019-02-16T23:34:48.671Z,70.26
2019-02-16T23:37:18.438Z,70.31
2019-02-16T23:39:47.870Z,70.03
2019-02-16T23:42:17.494Z,70.07
2019-02-16T23:44:47.104Z,69.64
2019-02-16T23:47:16.744Z,69.51
2019-02-16T23:49:46.214Z,70.27
2019-02-16T23:52:15.859Z,69.94
2019-02-16T23:54:45.446Z,70.00
2019-02-16T23:57:15.057Z,69.86
2019-02-16T23:59:44.493Z,69.99
